Time;durP1;ratioP1;P1;durP2;ratioP2;P2;SDS_P1;SDS_P2;PMS_P1;PMS_P2;Temp;Humidity;BMP_temperature;BMP_pressure;BME280_temperature;BME280_humidity;BME280_pressure;Samples;Min_cycle;Max_cycle;Signal;HPM_P1;HPM_P2
2022/07/09 00:00:57;;;;;;;15.77;6.38;;;15.80;99.90;;;;;;5074676;28;20174;-45
2022/07/09 00:03:23;;;;;;;19.25;7.40;;;15.90;99.90;;;;;;5073535;28;20069;-48
2022/07/09 00:05:48;;;;;;;11.93;6.13;;;15.90;99.90;;;;;;5074684;28;20045;-44
2022/07/09 00:08:16;;;;;;;16.02;7.18;;;16.60;99.90;;;;;;5076299;28;20071;-43
2022/07/09 00:10:42;;;;;;;14.82;6.20;;;16.50;99.90;;;;;;5075225;28;20040;-44
2022/07/09 00:13:07;;;;;;;18.27;6.40;;;15.90;99.90;;;;;;5074296;28;20114;-45
2022/07/09 00:15:33;;;;;;;14.85;6.13;;;16.60;99.90;;;;;;5074175;28;20070;-46
2022/07/09 00:17:59;;;;;;;16.05;6.72;;;15.80;99.90;;;;;;5075337;28;20040;-45
2022/07/09 00:20:25;;;;;;;15.38;5.78;;;15.90;99.90;;;;;;5074184;28;20032;-46
2022/07/09 00:22:50;;;;;;;15.00;6.68;;;15.80;99.90;;;;;;5073794;28;20211;-44
2022/07/09 00:25:16;;;;;;;16.30;6.82;;;18.00;99.90;;;;;;5075214;28;20062;-46
2022/07/09 00:27:42;;;;;;;16.23;6.82;;;16.00;99.90;;;;;;5074480;28;20044;-45
2022/07/09 00:30:08;;;;;;;17.05;7.55;;;15.60;99.90;;;;;;5075201;28;20056;-46
2022/07/09 00:32:34;;;;;;;15.55;6.18;;;15.70;99.90;;;;;;5074717;28;20034;-49
2022/07/09 00:34:59;;;;;;;20.05;6.65;;;17.90;99.90;;;;;;5074903;28;20044;-47
2022/07/09 00:37:25;;;;;;;16.65;6.13;;;17.00;99.90;;;;;;5072875;28;20046;-45
2022/07/09 00:39:51;;;;;;;16.67;6.05;;;15.90;99.90;;;;;;5074653;28;20048;-46
2022/07/09 00:42:17;;;;;;;16.83;6.95;;;16.30;99.90;;;;;;5073172;28;20036;-47
2022/07/09 00:44:43;;;;;;;20.60;6.93;;;16.90;99.90;;;;;;5073938;28;21215;-45
2022/07/09 00:47:11;;;;;;;17.83;6.53;;;15.90;99.90;;;;;;5074800;28;20043;-47
2022/07/09 00:49:42;;;;;;;13.27;6.43;;;16.10;99.90;;;;;;5075163;28;20040;-45
2022/07/09 00:52:12;;;;;;;15.77;6.22;;;16.60;99.90;;;;;;5072900;28;20124;-45
2022/07/09 00:54:41;;;;;;;15.82;7.30;;;16.10;99.90;;;;;;5075050;28;20048;-46
2022/07/09 00:57:09;;;;;;;18.38;7.57;;;18.00;99.90;;;;;;5073253;28;20118;-43
2022/07/09 00:59:36;;;;;;;16.10;6.93;;;16.40;99.90;;;;;;5074143;28;20388;-47
2022/07/09 01:02:04;;;;;;;17.17;7.38;;;16.90;99.90;;;;;;5074107;28;20047;-45
2022/07/09 01:04:30;;;;;;;17.13;6.90;;;15.70;99.90;;;;;;5074131;28;20126;-43
2022/07/09 01:06:57;;;;;;;17.30;8.13;;;15.70;99.90;;;;;;5073675;28;20054;-45
2022/07/09 01:09:24;;;;;;;13.45;7.30;;;15.80;99.90;;;;;;5074959;28;20047;-46
2022/07/09 01:11:51;;;;;;;13.48;6.38;;;15.60;99.90;;;;;;5074570;28;20050;-46
2022/07/09 01:14:17;;;;;;;15.32;6.68;;;16.00;99.90;;;;;;5074994;28;20040;-44
2022/07/09 01:16:43;;;;;;;17.00;7.47;;;16.00;99.90;;;;;;5072884;28;20079;-46
2022/07/09 01:19:08;;;;;;;19.15;7.95;;;16.00;99.90;;;;;;5073349;28;20508;-45
2022/07/09 01:21:36;;;;;;;15.48;7.22;;;15.70;99.90;;;;;;5073699;28;21953;-53
2022/07/09 01:24:02;;;;;;;15.35;7.18;;;15.80;99.90;;;;;;5075032;28;20408;-45
2022/07/09 01:26:28;;;;;;;17.40;8.65;;;16.00;99.90;;;;;;5073170;28;20032;-48
2022/07/09 01:28:54;;;;;;;16.35;7.43;;;15.90;99.90;;;;;;5074444;28;20043;-48
2022/07/09 01:31:20;;;;;;;18.25;7.65;;;17.00;99.90;;;;;;5077410;28;20039;-49
2022/07/09 01:33:46;;;;;;;17.85;7.53;;;15.70;99.90;;;;;;5077050;28;20063;-45
2022/07/09 01:36:11;;;;;;;15.95;7.88;;;15.90;99.90;;;;;;5076326;28;20182;-46
2022/07/09 01:38:39;;;;;;;17.83;7.88;;;15.90;99.90;;;;;;5077266;28;20051;-47
2022/07/09 01:41:05;;;;;;;15.15;8.20;;;16.20;99.90;;;;;;5077867;28;20085;-49
2022/07/09 01:43:33;;;;;;;16.95;7.45;;;16.00;99.90;;;;;;5077091;28;20052;-47
2022/07/09 01:46:00;;;;;;;19.48;8.02;;;15.70;99.90;;;;;;5075790;28;20558;-45
2022/07/09 01:48:28;;;;;;;16.13;7.78;;;15.90;99.90;;;;;;5075802;28;20068;-47
2022/07/09 01:50:54;;;;;;;16.17;7.35;;;16.10;99.90;;;;;;5077580;28;20048;-48
2022/07/09 01:53:21;;;;;;;20.38;8.15;;;17.90;99.90;;;;;;5076368;28;20386;-44
2022/07/09 01:55:47;;;;;;;21.55;7.68;;;15.70;99.90;;;;;;5077074;28;20732;-44
2022/07/09 01:58:13;;;;;;;16.83;7.78;;;15.70;99.90;;;;;;5076717;28;20036;-44
2022/07/09 02:00:41;;;;;;;18.77;7.68;;;15.70;99.90;;;;;;5075607;28;20052;-46
2022/07/09 02:03:07;;;;;;;14.98;7.22;;;15.80;99.90;;;;;;5077689;28;20139;-49
2022/07/09 02:05:33;;;;;;;15.73;8.00;;;16.60;99.90;;;;;;5078638;28;20455;-45
2022/07/09 02:08:02;;;;;;;12.30;6.85;;;15.80;99.90;;;;;;5075875;28;20112;-46
2022/07/09 02:10:30;;;;;;;19.20;8.35;;;15.70;99.90;;;;;;5076110;28;20036;-46
2022/07/09 02:12:56;;;;;;;15.40;7.45;;;18.10;99.90;;;;;;5075998;28;20796;-44
2022/07/09 02:15:21;;;;;;;12.43;7.22;;;16.40;99.90;;;;;;5075222;28;20039;-48
2022/07/09 02:17:47;;;;;;;15.23;7.35;;;17.90;99.90;;;;;;5076702;28;20039;-45
2022/07/09 02:20:13;;;;;;;13.20;7.22;;;15.70;99.90;;;;;;5076881;28;21074;-44
2022/07/09 02:22:38;;;;;;;16.40;7.38;;;15.60;99.90;;;;;;5076627;28;20039;-44
2022/07/09 02:25:06;;;;;;;16.63;6.80;;;16.10;99.90;;;;;;5074309;28;20055;-43
2022/07/09 02:27:32;;;;;;;15.65;7.53;;;15.90;99.90;;;;;;5076868;28;20033;-43
2022/07/09 02:29:58;;;;;;;19.02;7.25;;;15.80;99.90;;;;;;5075514;28;20055;-44
2022/07/09 02:32:23;;;;;;;14.57;6.68;;;15.80;99.90;;;;;;5076361;28;20549;-44
2022/07/09 02:34:50;;;;;;;15.75;6.53;;;15.70;99.90;;;;;;5075289;28;20052;-46
2022/07/09 02:37:15;;;;;;;15.27;7.05;;;15.80;99.90;;;;;;5076155;28;20036;-44
2022/07/09 02:39:41;;;;;;;12.50;5.90;;;16.60;99.90;;;;;;5075968;28;20085;-46
2022/07/09 02:42:09;;;;;;;14.20;6.22;;;15.80;99.90;;;;;;5075883;28;20466;-44
2022/07/09 02:44:35;;;;;;;14.15;5.72;;;15.70;99.90;;;;;;5076134;28;20048;-49
2022/07/09 02:47:00;;;;;;;12.80;5.47;;;15.80;99.90;;;;;;5076246;28;20073;-43
2022/07/09 02:49:30;;;;;;;10.48;5.45;;;15.80;99.90;;;;;;5077150;28;20039;-46
2022/07/09 02:51:57;;;;;;;12.55;5.78;;;15.80;99.90;;;;;;5074723;28;20058;-46
2022/07/09 02:54:23;;;;;;;13.27;5.32;;;17.20;99.90;;;;;;5075840;28;20052;-43
2022/07/09 02:56:52;;;;;;;14.35;5.55;;;15.90;99.90;;;;;;5075437;28;20121;-45
2022/07/09 02:59:18;;;;;;;12.60;5.80;;;16.80;99.90;;;;;;5076712;28;20428;-44
2022/07/09 03:01:44;;;;;;;12.20;4.97;;;15.90;99.90;;;;;;5076493;28;20040;-45
2022/07/09 03:04:09;;;;;;;11.88;4.88;;;15.90;99.90;;;;;;5073636;28;20044;-44
2022/07/09 03:06:35;;;;;;;13.48;5.70;;;16.10;99.90;;;;;;5074573;28;20494;-43
2022/07/09 03:09:01;;;;;;;13.00;5.57;;;15.90;99.90;;;;;;5075572;28;20447;-46
2022/07/09 03:11:26;;;;;;;12.73;6.10;;;15.90;99.90;;;;;;5077119;28;20527;-44
2022/07/09 03:13:54;;;;;;;15.57;5.97;;;15.60;99.90;;;;;;5076967;28;20032;-43
2022/07/09 03:16:20;;;;;;;14.10;5.95;;;16.30;99.90;;;;;;5075218;28;20036;-43
2022/07/09 03:18:46;;;;;;;11.13;6.38;;;15.60;99.90;;;;;;5075640;28;20070;-44
2022/07/09 03:21:12;;;;;;;15.43;5.55;;;15.50;99.90;;;;;;5075206;28;20336;-43
2022/07/09 03:23:39;;;;;;;11.77;5.68;;;15.70;99.90;;;;;;5076824;28;20409;-46
2022/07/09 03:26:05;;;;;;;10.15;5.10;;;15.40;99.90;;;;;;5076000;28;20048;-43
2022/07/09 03:28:31;;;;;;;12.18;5.07;;;15.60;99.90;;;;;;5076220;28;20051;-45
2022/07/09 03:30:57;;;;;;;12.65;4.97;;;17.30;99.90;;;;;;5074474;28;20547;-45
2022/07/09 03:33:23;;;;;;;18.17;7.20;;;15.60;99.90;;;;;;5075532;28;20075;-43
2022/07/09 03:35:48;;;;;;;14.52;5.90;;;15.50;99.90;;;;;;5076498;28;20036;-46
2022/07/09 03:38:14;;;;;;;12.85;6.00;;;15.70;99.90;;;;;;5075792;28;20496;-45
2022/07/09 03:40:40;;;;;;;14.38;5.90;;;15.50;99.90;;;;;;5075139;28;20089;-44
2022/07/09 03:43:09;;;;;;;16.92;6.25;;;15.50;99.90;;;;;;5074959;28;20054;-47
2022/07/09 03:45:35;;;;;;;14.77;6.82;;;15.60;99.90;;;;;;5075384;28;20298;-46
2022/07/09 03:48:00;;;;;;;18.58;6.85;;;15.50;99.90;;;;;;5075459;28;20425;-45
2022/07/09 03:50:29;;;;;;;16.95;6.00;;;16.70;99.90;;;;;;5073553;28;20036;-48
2022/07/09 03:52:55;;;;;;;13.57;5.88;;;15.50;99.90;;;;;;5074592;28;20047;-45
2022/07/09 03:55:21;;;;;;;12.45;5.80;;;17.80;99.90;;;;;;5074972;28;20048;-43
2022/07/09 03:57:48;;;;;;;11.63;5.47;;;15.80;99.90;;;;;;5074929;28;20048;-45
2022/07/09 04:00:14;;;;;;;15.35;5.55;;;15.70;99.90;;;;;;5074791;28;20031;-45
2022/07/09 04:02:40;;;;;;;13.88;5.60;;;15.60;99.90;;;;;;5074681;28;20044;-45
2022/07/09 04:05:07;;;;;;;13.85;6.25;;;15.60;99.90;;;;;;5075459;28;20047;-45
2022/07/09 04:07:32;;;;;;;13.27;6.18;;;15.60;99.90;;;;;;5067293;28;20052;-43
2022/07/09 04:09:58;;;;;;;14.85;5.82;;;15.60;99.90;;;;;;5075495;28;20065;-44
2022/07/09 04:12:27;;;;;;;12.77;6.60;;;15.70;99.90;;;;;;5075037;28;20157;-43
2022/07/09 04:14:53;;;;;;;15.23;6.68;;;17.60;99.90;;;;;;5073602;28;20074;-46
2022/07/09 04:17:18;;;;;;;12.02;5.40;;;15.60;99.90;;;;;;5073624;28;20503;-44
2022/07/09 04:19:44;;;;;;;12.82;5.65;;;16.00;99.90;;;;;;5074595;28;20079;-43
2022/07/09 04:22:10;;;;;;;13.25;6.32;;;15.70;99.90;;;;;;5075188;28;20040;-44
2022/07/09 04:24:35;;;;;;;13.13;5.63;;;15.90;99.90;;;;;;5074615;28;20040;-45
2022/07/09 04:27:01;;;;;;;9.70;4.93;;;15.80;99.90;;;;;;5075283;28;20043;-47
2022/07/09 04:29:27;;;;;;;18.02;6.30;;;16.20;99.90;;;;;;5074862;28;20036;-44
2022/07/09 04:31:54;;;;;;;10.52;5.20;;;15.80;99.90;;;;;;5075035;28;20562;-44
2022/07/09 04:34:20;;;;;;;11.30;5.00;;;15.90;99.90;;;;;;5073021;28;20035;-44
2022/07/09 04:36:46;;;;;;;11.40;5.43;;;16.00;99.90;;;;;;5071923;28;20564;-44
2022/07/09 04:39:13;;;;;;;13.85;5.88;;;15.80;99.90;;;;;;5074899;28;20404;-45
2022/07/09 04:41:39;;;;;;;10.00;4.80;;;16.20;99.90;;;;;;5074887;28;20634;-45
2022/07/09 04:44:05;;;;;;;12.85;5.35;;;18.00;99.90;;;;;;5075066;28;20447;-47
2022/07/09 04:46:32;;;;;;;13.63;6.28;;;16.00;99.90;;;;;;5075174;28;20043;-46
2022/07/09 04:48:58;;;;;;;10.30;5.00;;;15.90;99.90;;;;;;5075318;28;20044;-45
2022/07/09 04:51:23;;;;;;;13.73;4.95;;;17.40;99.90;;;;;;5073271;28;20627;-45
2022/07/09 04:53:49;;;;;;;11.23;5.43;;;16.20;99.90;;;;;;5073866;28;20071;-46
2022/07/09 04:56:18;;;;;;;15.40;5.03;;;16.50;99.90;;;;;;5075766;28;20135;-49
2022/07/09 04:58:51;;;;;;;12.43;5.05;;;17.20;99.90;;;;;;5074145;28;20075;-48
2022/07/09 05:01:21;;;;;;;9.70;4.80;;;16.20;99.90;;;;;;5073876;28;20036;-48
2022/07/09 05:03:47;;;;;;;10.07;4.72;;;16.10;99.90;;;;;;5074412;28;20089;-48
2022/07/09 05:06:18;;;;;;;9.48;4.60;;;16.50;99.90;;;;;;5073834;28;20068;-48
2022/07/09 05:08:45;;;;;;;11.80;4.78;;;16.10;99.90;;;;;;5074809;28;20586;-48
2022/07/09 05:11:11;;;;;;;12.10;4.90;;;16.40;99.90;;;;;;5073645;28;20032;-49
2022/07/09 05:13:42;;;;;;;9.25;4.63;;;16.40;99.90;;;;;;5072093;28;20076;-48
2022/07/09 05:16:08;;;;;;;11.93;5.03;;;17.30;99.90;;;;;;5073881;28;20043;-47
2022/07/09 05:18:34;;;;;;;11.10;5.20;;;16.50;99.90;;;;;;5073241;28;20089;-48
2022/07/09 05:21:00;;;;;;;11.02;4.78;;;17.80;99.90;;;;;;5074198;28;20036;-47
2022/07/09 05:23:26;;;;;;;11.88;4.32;;;16.50;99.90;;;;;;5072751;28;20113;-48
2022/07/09 05:25:53;;;;;;;9.57;4.40;;;17.50;99.90;;;;;;5075176;28;20143;-48
2022/07/09 05:28:19;;;;;;;10.48;4.75;;;16.70;99.90;;;;;;5073705;28;20044;-48
2022/07/09 05:30:44;;;;;;;11.63;5.10;;;16.70;99.90;;;;;;5072865;28;20590;-46
2022/07/09 05:33:13;;;;;;;10.63;4.70;;;16.80;99.90;;;;;;5073839;28;20094;-47
2022/07/09 05:35:41;;;;;;;11.73;4.47;;;19.00;99.90;;;;;;5073192;28;20048;-48
2022/07/09 05:38:06;;;;;;;11.15;4.68;;;16.70;99.90;;;;;;5073372;28;20901;-46
2022/07/09 05:40:32;;;;;;;11.27;4.68;;;16.80;99.90;;;;;;5074204;28;20043;-48
2022/07/09 05:42:57;;;;;;;13.35;4.28;;;16.70;99.90;;;;;;5073735;28;20105;-49
2022/07/09 05:45:23;;;;;;;11.38;4.60;;;16.60;99.90;;;;;;5071879;28;20040;-46
2022/07/09 05:47:49;;;;;;;9.30;4.03;;;19.10;99.90;;;;;;5074448;28;20189;-47
2022/07/09 05:50:14;;;;;;;10.90;4.20;;;16.90;99.90;;;;;;5073172;28;20115;-46
2022/07/09 05:52:42;;;;;;;10.40;4.30;;;16.90;99.90;;;;;;5071478;28;20051;-49
2022/07/09 05:55:08;;;;;;;10.35;4.57;;;17.10;99.90;;;;;;5072885;28;20036;-45
2022/07/09 05:57:33;;;;;;;9.95;3.70;;;17.10;99.90;;;;;;5073003;28;20389;-48
2022/07/09 05:59:59;;;;;;;7.85;3.58;;;18.00;99.90;;;;;;5073475;28;20046;-46
2022/07/09 06:02:24;;;;;;;11.50;4.20;;;17.10;99.90;;;;;;5073011;28;20052;-49
2022/07/09 06:04:50;;;;;;;8.40;3.60;;;17.00;99.90;;;;;;5071097;28;20075;-47
2022/07/09 06:07:16;;;;;;;8.20;3.25;;;17.10;99.90;;;;;;5073203;28;20818;-47
2022/07/09 06:09:41;;;;;;;9.65;3.60;;;17.20;99.90;;;;;;5073416;28;20035;-48
2022/07/09 06:12:08;;;;;;;9.43;3.55;;;17.90;99.90;;;;;;5072989;28;20110;-50
2022/07/09 06:14:34;;;;;;;8.15;2.90;;;17.10;99.90;;;;;;5073425;28;20071;-48
2022/07/09 06:17:05;;;;;;;10.18;3.53;;;17.10;99.90;;;;;;5076874;28;20163;-46
2022/07/09 06:19:32;;;;;;;11.43;3.00;;;17.00;99.90;;;;;;5074996;28;20043;-47
2022/07/09 06:22:00;;;;;;;12.23;2.90;;;17.30;99.90;;;;;;5077676;28;20047;-47
2022/07/09 06:24:28;;;;;;;8.05;2.60;;;17.20;99.90;;;;;;5076801;28;20036;-49
2022/07/09 06:26:54;;;;;;;8.48;2.75;;;17.90;99.90;;;;;;5075157;28;20044;-49
2022/07/09 06:29:20;;;;;;;9.50;2.83;;;17.30;99.90;;;;;;5076546;28;20132;-47
2022/07/09 06:31:47;;;;;;;8.95;3.15;;;18.30;99.90;;;;;;5077570;28;20036;-47
2022/07/09 06:34:13;;;;;;;8.13;2.78;;;18.20;99.90;;;;;;5076085;28;20070;-48
2022/07/09 06:36:40;;;;;;;5.47;2.28;;;18.10;99.90;;;;;;5077993;28;20496;-48
2022/07/09 06:41:52;;;;;;;10.18;2.53;;;18.40;99.90;;;;;;5075921;28;20086;-48
2022/07/09 06:44:19;;;;;;;7.50;2.47;;;17.70;99.90;;;;;;5076174;28;20111;-45
2022/07/09 06:46:45;;;;;;;6.38;2.50;;;17.60;99.90;;;;;;5077070;28;20048;-49
2022/07/09 06:49:10;;;;;;;5.72;2.33;;;17.70;99.90;;;;;;5076565;28;20036;-47
2022/07/09 06:51:37;;;;;;;7.70;2.80;;;17.60;99.90;;;;;;5075669;28;20547;-43
2022/07/09 06:54:02;;;;;;;6.32;2.30;;;17.70;99.90;;;;;;5075439;28;20997;-44
2022/07/09 06:56:28;;;;;;;6.60;2.58;;;17.70;99.90;;;;;;5076721;28;20105;-43
2022/07/09 06:58:54;;;;;;;7.00;2.25;;;17.60;99.90;;;;;;5076151;28;20096;-43
2022/07/09 07:01:19;;;;;;;11.88;2.70;;;17.70;99.90;;;;;;5076593;28;20040;-43
2022/07/09 07:03:48;;;;;;;9.05;2.60;;;17.70;99.90;;;;;;5075059;28;20059;-43
2022/07/09 07:06:14;;;;;;;6.80;2.30;;;17.50;99.90;;;;;;5075683;28;20472;-43
2022/07/09 07:08:39;;;;;;;11.27;2.83;;;17.70;99.90;;;;;;5076370;28;20592;-46
2022/07/09 07:11:07;;;;;;;8.25;2.00;;;17.60;99.90;;;;;;5076619;28;20036;-45
2022/07/09 07:13:33;;;;;;;5.68;1.85;;;17.80;99.90;;;;;;5076107;28;20511;-44
2022/07/09 07:15:59;;;;;;;5.75;1.85;;;17.80;99.90;;;;;;5075564;28;20036;-44
2022/07/09 07:18:24;;;;;;;6.82;1.90;;;17.90;99.90;;;;;;5076209;28;20519;-44
2022/07/09 07:20:50;;;;;;;11.70;3.15;;;17.90;99.90;;;;;;5076816;28;20040;-44
2022/07/09 07:23:16;;;;;;;6.40;1.85;;;18.00;99.90;;;;;;5076178;28;20530;-43
2022/07/09 07:25:43;;;;;;;7.90;2.50;;;17.90;99.90;;;;;;5075100;28;20063;-44
2022/07/09 07:28:09;;;;;;;6.72;1.80;;;18.00;99.90;;;;;;5072816;28;20047;-44
2022/07/09 07:30:35;;;;;;;8.65;1.83;;;18.30;99.90;;;;;;5076027;28;20044;-46
2022/07/09 07:33:02;;;;;;;9.60;2.08;;;18.60;99.90;;;;;;5076423;28;20044;-46
2022/07/09 07:35:28;;;;;;;6.65;1.80;;;19.00;99.90;;;;;;5075647;28;20035;-45
2022/07/09 07:37:54;;;;;;;7.65;1.60;;;19.10;99.90;;;;;;5075199;28;20044;-43
2022/07/09 07:40:19;;;;;;;10.73;1.83;;;19.40;99.90;;;;;;5074332;28;20054;-45
2022/07/09 07:42:45;;;;;;;6.15;1.80;;;20.00;99.90;;;;;;5074316;28;20483;-45
2022/07/09 07:45:13;;;;;;;6.30;1.90;;;19.30;99.90;;;;;;5075493;28;20036;-44
2022/07/09 07:47:38;;;;;;;7.53;1.65;;;21.10;99.90;;;;;;5074965;28;20031;-43
2022/07/09 07:50:05;;;;;;;8.18;1.85;;;19.60;99.90;;;;;;5075163;28;20032;-45
2022/07/09 07:52:31;;;;;;;6.70;1.55;;;19.30;99.90;;;;;;5074217;28;20028;-48
2022/07/09 07:54:57;;;;;;;4.88;1.50;;;21.30;99.90;;;;;;5074046;28;20060;-47
2022/07/09 07:57:23;;;;;;;7.97;1.70;;;19.80;99.90;;;;;;5073930;28;20024;-46
2022/07/09 07:59:50;;;;;;;6.47;1.63;;;20.90;99.90;;;;;;5073452;28;20036;-47
2022/07/09 08:02:18;;;;;;;8.63;2.15;;;20.60;99.90;;;;;;5073867;28;20170;-44
2022/07/09 08:04:44;;;;;;;5.20;1.52;;;22.10;99.90;;;;;;5074624;28;20040;-45
2022/07/09 08:07:09;;;;;;;9.55;1.50;;;22.90;93.20;;;;;;5075276;28;21195;-51
2022/07/09 08:09:35;;;;;;;8.05;1.75;;;23.80;90.10;;;;;;5075697;28;20040;-48
2022/07/09 08:12:01;;;;;;;6.10;1.70;;;24.70;66.10;;;;;;5073033;28;20069;-47
2022/07/09 08:14:27;;;;;;;8.00;1.80;;;25.30;39.50;;;;;;5074814;28;20032;-46
2022/07/09 08:16:54;;;;;;;7.10;1.48;;;24.60;5.30;;;;;;5073820;28;20031;-45
2022/07/09 08:19:20;;;;;;;6.53;1.70;;;23.80;20.70;;;;;;5075661;28;20092;-49
2022/07/09 08:21:46;;;;;;;8.85;1.50;;;23.50;49.00;;;;;;5074605;28;20036;-48
2022/07/09 08:24:13;;;;;;;4.63;1.40;;;23.20;46.40;;;;;;5073971;28;20101;-48
2022/07/09 08:26:39;;;;;;;7.68;1.40;;;22.80;49.00;;;;;;5074272;28;20572;-49
2022/07/09 08:29:04;;;;;;;10.57;1.75;;;22.50;61.00;;;;;;5075433;28;20042;-48
2022/07/09 08:31:30;;;;;;;8.82;2.40;;;20.50;70.40;;;;;;5073641;28;20036;-45
2022/07/09 08:33:56;;;;;;;10.63;1.85;;;22.10;78.80;;;;;;5073410;28;20044;-47
2022/07/09 08:36:21;;;;;;;7.10;1.45;;;21.90;83.40;;;;;;5075454;28;20040;-48
2022/07/09 08:38:49;;;;;;;12.07;2.00;;;21.10;91.80;;;;;;5073192;28;20161;-47
2022/07/09 08:41:19;;;;;;;12.93;2.00;;;21.80;92.00;;;;;;5074639;28;20722;-49
2022/07/09 08:43:49;;;;;;;7.78;1.67;;;22.70;77.00;;;;;;5074882;28;20043;-47
2022/07/09 08:46:17;;;;;;;6.80;1.55;;;23.70;55.80;;;;;;5074290;28;20044;-49
2022/07/09 08:48:43;;;;;;;8.95;1.80;;;24.20;29.70;;;;;;5072957;28;20035;-50
2022/07/09 08:51:09;;;;;;;5.65;1.40;;;24.10;18.90;;;;;;5074301;28;20055;-48
2022/07/09 08:53:42;;;;;;;6.82;1.40;;;23.50;11.20;;;;;;5073985;28;20091;-47
2022/07/09 08:56:11;;;;;;;9.32;1.77;;;22.70;12.00;;;;;;5074268;28;20044;-46
2022/07/09 08:58:40;;;;;;;9.52;1.40;;;22.10;41.20;;;;;;5072742;28;20055;-49
2022/07/09 09:01:06;;;;;;;5.50;1.13;;;22.50;43.20;;;;;;5074436;28;20043;-45
2022/07/09 09:03:32;;;;;;;5.35;1.00;;;22.90;42.00;;;;;;5073820;28;20058;-46
2022/07/09 09:06:09;;;;;;;7.07;1.27;;;23.40;29.70;;;;;;5073540;28;20105;-46
2022/07/09 09:08:39;;;;;;;6.10;1.17;;;23.30;1.00;;;;;;5074463;28;20043;-45
2022/07/09 09:11:06;;;;;;;8.52;1.58;;;22.70;16.20;;;;;;5073807;28;20391;-48
2022/07/09 09:13:44;;;;;;;12.23;1.63;;;23.30;7.80;;;;;;5073493;28;20036;-49
2022/07/09 09:16:13;;;;;;;5.97;1.20;;;23.40;1.00;;;;;;5073449;28;20044;-49
2022/07/09 09:18:47;;;;;;;7.18;1.35;;;22.70;1.00;;;;;;5071827;28;20048;-47
2022/07/09 09:21:14;;;;;;;10.52;1.25;;;22.40;18.30;;;;;;5072242;28;20378;-49
2022/07/09 09:23:44;;;;;;;10.10;1.67;;;22.70;12.30;;;;;;5072976;28;20085;-47
2022/07/09 09:26:17;;;;;;;6.95;1.30;;;22.70;9.90;;;;;;5072208;28;20056;-46
2022/07/09 09:28:51;;;;;;;6.32;1.35;;;22.50;1.00;;;;;;5072979;28;20578;-47
2022/07/09 09:31:20;;;;;;;10.15;1.55;;;22.00;1.00;;;;;;5072342;28;20036;-46
2022/07/09 09:33:46;;;;;;;9.52;2.05;;;21.60;19.50;;;;;;5073469;28;20040;-49
2022/07/09 09:36:11;;;;;;;8.40;1.73;;;21.20;38.00;;;;;;5072567;28;20028;-48
2022/07/09 09:38:37;;;;;;;8.05;1.48;;;21.40;55.20;;;;;;5074077;28;20078;-48
2022/07/09 09:41:03;;;;;;;9.90;1.60;;;21.00;51.70;;;;;;5073633;28;20442;-47
2022/07/09 09:43:31;;;;;;;8.70;1.80;;;21.20;51.40;;;;;;5072581;28;20035;-46
2022/07/09 09:46:02;;;;;;;8.75;2.22;;;20.60;50.20;;;;;;5073150;28;20101;-46
2022/07/09 09:48:29;;;;;;;11.90;1.60;;;20.60;55.90;;;;;;5071793;28;20124;-47
2022/07/09 09:50:58;;;;;;;6.88;1.75;;;20.70;61.30;;;;;;5075494;28;20040;-46
2022/07/09 09:53:24;;;;;;;9.70;1.92;;;20.70;61.40;;;;;;5076821;28;20496;-47
2022/07/09 09:55:50;;;;;;;9.80;1.55;;;21.00;59.30;;;;;;5077710;28;20052;-44
2022/07/09 09:58:16;;;;;;;6.53;1.48;;;21.50;60.60;;;;;;5076761;28;20058;-47
2022/07/09 10:00:42;;;;;;;6.63;1.73;;;23.70;59.70;;;;;;5076688;28;20781;-50
2022/07/09 10:03:11;;;;;;;7.55;2.13;;;21.80;25.30;;;;;;5076250;28;21657;-46
2022/07/09 10:05:37;;;;;;;8.98;1.65;;;21.80;20.40;;;;;;5077535;28;20043;-48
2022/07/09 10:08:05;;;;;;;8.32;1.42;;;22.00;16.30;;;;;;5077613;28;20653;-44
2022/07/09 10:10:30;;;;;;;9.68;1.80;;;22.50;15.40;;;;;;5076027;28;20036;-45
2022/07/09 10:12:56;;;;;;;13.20;2.72;;;21.80;23.60;;;;;;5077687;28;20044;-48
2022/07/09 10:15:26;;;;;;;8.63;1.80;;;21.90;30.70;;;;;;5076935;28;20062;-48
2022/07/09 10:17:52;;;;;;;8.38;1.90;;;21.80;44.40;;;;;;5076974;28;20363;-47
2022/07/09 10:20:33;;;;;;;8.25;1.83;;;22.00;40.90;;;;;;5077460;28;20480;-44
2022/07/09 10:22:59;;;;;;;9.35;1.85;;;22.70;18.80;;;;;;5076578;28;20111;-43
2022/07/09 10:25:32;;;;;;;11.55;2.13;;;21.60;42.60;;;;;;5076522;28;20071;-46
2022/07/09 10:27:58;;;;;;;10.55;2.33;;;20.70;50.50;;;;;;5075611;28;20123;-47
2022/07/09 10:30:24;;;;;;;13.52;2.70;;;20.60;69.30;;;;;;5076457;28;20382;-46
2022/07/09 10:33:08;;;;;;;12.63;1.83;;;19.60;82.20;;;;;;5077031;28;20039;-47
2022/07/09 10:35:41;;;;;;;12.30;2.75;;;19.30;88.00;;;;;;5076210;28;20036;-45
2022/07/09 10:38:07;;;;;;;7.72;1.92;;;19.10;91.00;;;;;;5077346;28;20040;-45
2022/07/09 10:41:03;;;;;;;8.90;1.75;;;19.00;92.30;;;;;;5076014;28;20044;-46
2022/07/09 10:43:51;;;;;;;11.02;2.05;;;18.60;84.20;;;;;;5013039;28;20124;-46
2022/07/09 10:46:17;;;;;;;8.88;1.75;;;18.50;87.00;;;;;;5013489;28;20718;-46
2022/07/09 10:48:48;;;;;;;10.00;2.13;;;19.90;91.00;;;;;;5013084;28;20061;-43
2022/07/09 10:51:19;;;;;;;12.30;1.92;;;18.20;90.10;;;;;;5011464;28;20115;-46
2022/07/09 10:53:45;;;;;;;12.55;1.90;;;18.10;91.30;;;;;;5012143;28;20102;-44
2022/07/09 10:56:11;;;;;;;10.70;2.13;;;18.20;91.10;;;;;;5012894;28;20072;-48
2022/07/09 10:58:37;;;;;;;9.68;2.08;;;20.40;91.50;;;;;;5013925;28;20084;-45
2022/07/09 11:01:04;;;;;;;7.78;1.42;;;18.60;90.20;;;;;;4996939;28;20543;-46
2022/07/09 11:03:31;;;;;;;13.30;2.10;;;19.60;81.40;;;;;;5012824;28;20167;-48
2022/07/09 11:05:58;;;;;;;9.88;1.63;;;20.10;84.00;;;;;;5012736;28;20153;-45
2022/07/09 11:08:24;;;;;;;9.73;2.13;;;19.30;75.80;;;;;;4996199;28;20037;-49
2022/07/09 11:10:50;;;;;;;8.38;1.60;;;19.50;71.20;;;;;;5011769;28;20042;-45
2022/07/09 11:13:15;;;;;;;8.38;1.65;;;20.20;66.80;;;;;;5012258;28;20046;-45
2022/07/09 11:15:41;;;;;;;8.40;1.58;;;19.50;53.70;;;;;;5013115;28;20333;-46
2022/07/09 11:18:15;;;;;;;8.45;1.40;;;20.00;52.70;;;;;;5012050;28;20037;-45
2022/07/09 11:20:45;;;;;;;8.10;1.52;;;20.00;28.80;;;;;;5065017;28;20168;-47
2022/07/09 11:23:16;;;;;;;7.30;1.40;;;21.00;20.70;;;;;;5074495;28;20117;-48
2022/07/09 11:25:43;;;;;;;6.07;1.60;;;19.90;12.80;;;;;;5074900;28;20101;-48
2022/07/09 11:28:18;;;;;;;7.80;1.17;;;20.50;2.80;;;;;;5074651;28;20459;-45
2022/07/09 11:30:44;;;;;;;6.03;1.10;;;20.20;1.00;;;;;;5075212;28;20036;-44
2022/07/09 11:33:12;;;;;;;6.15;1.17;;;20.60;1.00;;;;;;5075753;28;20500;-45
2022/07/09 11:35:38;;;;;;;4.93;1.02;;;20.70;1.00;;;;;;5073787;28;20071;-46
2022/07/09 11:38:06;;;;;;;5.80;1.20;;;20.80;1.00;;;;;;5076009;28;20119;-45
2022/07/09 11:40:32;;;;;;;8.38;1.25;;;21.10;1.00;;;;;;5075359;28;20850;-49
2022/07/09 11:42:58;;;;;;;8.27;1.55;;;21.10;99.90;;;;;;5075387;28;20042;-44
2022/07/09 11:45:27;;;;;;;4.35;1.00;;;21.90;1.00;;;;;;5074151;28;20479;-47
2022/07/09 11:48:12;;;;;;;7.32;1.15;;;21.30;1.00;;;;;;5074743;28;20416;-46
2022/07/09 11:50:43;;;;;;;4.97;1.30;;;21.20;99.90;;;;;;5071993;28;20036;-44
2022/07/09 11:53:23;;;;;;;7.65;1.35;;;21.20;1.00;;;;;;5074073;28;20480;-47
2022/07/09 11:56:04;;;;;;;7.35;1.30;;;21.20;99.90;;;;;;5074686;28;20837;-45
2022/07/09 11:58:30;;;;;;;7.07;1.20;;;21.40;1.00;;;;;;5073587;28;20321;-45
2022/07/09 12:00:56;;;;;;;8.05;1.65;;;21.20;99.90;;;;;;5073260;28;21032;-48
2022/07/09 12:03:27;;;;;;;7.68;1.67;;;23.50;1.00;;;;;;5074181;28;20046;-45
2022/07/09 12:05:53;;;;;;;4.88;1.00;;;21.30;99.90;;;;;;5074279;28;20531;-44
2022/07/09 12:08:32;;;;;;;5.72;1.10;;;21.20;99.90;;;;;;5074551;28;20047;-46
2022/07/09 12:10:58;;;;;;;11.57;1.42;;;21.50;99.90;;;;;;5075248;28;20324;-47
2022/07/09 12:13:25;;;;;;;9.00;1.20;;;21.30;99.90;;;;;;5074275;28;20058;-44
2022/07/09 12:15:52;;;;;;;7.97;1.40;;;23.30;1.00;;;;;;5073876;28;20139;-48
2022/07/09 12:18:18;;;;;;;6.82;1.23;;;21.40;99.90;;;;;;5073019;28;20043;-48
2022/07/09 12:20:44;;;;;;;5.53;1.08;;;23.20;99.90;;;;;;5072731;28;20052;-48
2022/07/09 12:23:09;;;;;;;5.60;1.10;;;23.10;1.00;;;;;;5074349;28;20036;-49
2022/07/09 12:25:35;;;;;;;5.78;1.17;;;21.20;1.00;;;;;;5074031;28;20495;-45
2022/07/09 12:28:01;;;;;;;4.25;1.17;;;21.00;1.00;;;;;;5074014;28;20047;-46
2022/07/09 12:30:31;;;;;;;8.10;1.38;;;21.00;1.00;;;;;;5073905;28;20428;-46
2022/07/09 12:33:00;;;;;;;5.38;1.15;;;21.20;1.00;;;;;;5073336;28;20686;-46
2022/07/09 12:35:27;;;;;;;7.88;1.30;;;21.20;99.90;;;;;;5067142;28;20515;-44
2022/07/09 12:37:52;;;;;;;5.18;1.20;;;20.90;99.90;;;;;;5075371;28;20047;-48
2022/07/09 12:40:18;;;;;;;4.10;1.00;;;21.70;1.00;;;;;;5073666;28;20048;-44
2022/07/09 12:42:44;;;;;;;6.90;1.00;;;20.80;1.00;;;;;;5073597;28;20603;-44
2022/07/09 12:45:11;;;;;;;4.97;0.90;;;21.20;1.00;;;;;;5072981;28;20036;-48